createdAt,value
2019-03-12T00:01:01.062Z,8.40
2019-03-12T00:01:51.755Z,6.60
2019-03-12T00:03:01.407Z,6.20
2019-03-12T00:03:51.643Z,4.90
2019-03-12T00:05:01.061Z,4.30
2019-03-12T00:06:01.047Z,4.80
2019-03-12T00:06:51.583Z,4.80
2019-03-12T00:07:51.633Z,4.60
2019-03-12T00:09:02.646Z,4.90
2019-03-12T00:10:00.960Z,4.30
2019-03-12T00:11:01.757Z,4.70
2019-03-12T00:11:51.509Z,5.10
2019-03-12T00:12:51.615Z,5.40
2019-03-12T00:13:51.482Z,6.00
2019-03-12T00:14:52.392Z,5.10
2019-03-12T00:16:00.890Z,5.30
2019-03-12T00:16:51.495Z,4.70
2019-03-12T00:18:00.887Z,4.70
2019-03-12T00:20:03.984Z,2.90
2019-03-12T00:21:03.896Z,3.60
2019-03-12T00:22:03.890Z,4.00
2019-03-12T00:23:03.803Z,3.00
2019-03-12T00:24:03.912Z,3.30
2019-03-12T00:25:03.733Z,3.80
2019-03-12T00:26:14.779Z,3.50
2019-03-12T00:27:03.775Z,2.90
2019-03-12T00:28:03.886Z,2.60
2019-03-12T00:29:03.754Z,2.20
2019-03-12T00:30:03.804Z,2.50
2019-03-12T00:31:14.433Z,2.70
2019-03-12T00:32:03.754Z,2.80
2019-03-12T00:33:03.770Z,3.00
2019-03-12T00:34:03.677Z,2.80
2019-03-12T00:35:03.765Z,3.10
2019-03-12T00:36:03.681Z,3.20
2019-03-12T00:37:13.124Z,3.40
2019-03-12T00:38:03.685Z,4.00
2019-03-12T00:39:03.811Z,4.30
2019-03-12T00:40:03.649Z,4.20
2019-03-12T00:41:03.716Z,3.90
2019-03-12T00:43:14.999Z,5.30
2019-03-12T00:44:14.851Z,4.50
2019-03-12T00:45:14.865Z,4.40
2019-03-12T00:47:27.276Z,4.10
2019-03-12T00:48:27.316Z,6.50
2019-03-12T00:49:27.189Z,6.10
2019-03-12T00:50:27.240Z,5.60
2019-03-12T00:51:27.101Z,6.10
2019-03-12T00:52:27.046Z,6.80
2019-03-12T00:53:27.062Z,6.10
2019-03-12T00:54:27.039Z,5.10
2019-03-12T00:55:26.999Z,5.40
2019-03-12T00:56:27.623Z,5.50
2019-03-12T00:57:35.675Z,5.00
2019-03-12T00:58:27.106Z,5.60
2019-03-12T00:59:27.125Z,4.20
2019-03-12T01:00:27.043Z,5.30
2019-03-12T01:01:27.161Z,4.40
2019-03-12T01:02:26.994Z,5.10
2019-03-12T01:03:26.918Z,4.20
2019-03-12T01:04:26.949Z,4.50
2019-03-12T01:05:26.904Z,5.60
2019-03-12T01:06:26.875Z,5.10
2019-03-12T01:07:26.907Z,5.10
2019-03-12T01:08:26.862Z,4.50
2019-03-12T01:09:26.886Z,4.40
2019-03-12T01:10:26.859Z,4.60
2019-03-12T01:11:26.838Z,4.30
2019-03-12T01:12:26.818Z,5.40
2019-03-12T01:13:26.808Z,6.00
2019-03-12T01:14:35.852Z,4.70
2019-03-12T01:15:26.888Z,7.00
2019-03-12T01:16:26.848Z,5.40
2019-03-12T01:17:26.895Z,5.70
2019-03-12T01:18:26.807Z,6.60
2019-03-12T01:19:26.736Z,5.60
2019-03-12T01:20:26.800Z,6.00
2019-03-12T01:21:26.740Z,5.00
2019-03-12T01:22:26.705Z,4.70
2019-03-12T01:23:26.698Z,4.70
2019-03-12T01:24:26.673Z,3.90
2019-03-12T01:25:26.743Z,5.10
2019-03-12T01:26:26.658Z,4.30
2019-03-12T01:27:26.651Z,6.10
2019-03-12T01:28:26.639Z,3.80
2019-03-12T01:29:36.156Z,4.20
2019-03-12T01:30:26.756Z,5.10
2019-03-12T01:31:26.768Z,5.10
2019-03-12T01:32:26.648Z,6.10
2019-03-12T01:33:26.762Z,5.60
2019-03-12T01:34:26.589Z,7.90
2019-03-12T01:35:26.555Z,5.10
2019-03-12T01:36:26.591Z,5.80
2019-03-12T01:37:35.212Z,6.20
2019-03-12T01:38:35.213Z,7.10
2019-03-12T01:39:26.599Z,6.20
2019-03-12T01:40:26.615Z,6.40
2019-03-12T01:41:35.201Z,5.80
2019-03-12T01:42:26.592Z,6.20
2019-03-12T01:44:07.109Z,6.10
2019-03-12T01:44:35.978Z,6.80
2019-03-12T01:45:26.545Z,6.60
2019-03-12T01:46:26.606Z,6.80
2019-03-12T01:47:26.525Z,6.40
2019-03-12T01:48:38.760Z,7.40
2019-03-12T01:49:26.528Z,7.20
2019-03-12T01:50:26.493Z,6.80
2019-03-12T01:51:26.431Z,7.50
2019-03-12T01:52:26.599Z,7.20
2019-03-12T01:53:26.357Z,7.70
2019-03-12T01:54:35.055Z,8.30
2019-03-12T01:55:26.395Z,7.60
2019-03-12T01:56:26.429Z,7.30
2019-03-12T01:57:35.829Z,6.70
2019-03-12T01:58:26.417Z,9.10
2019-03-12T01:59:26.398Z,8.60
2019-03-12T02:00:26.484Z,7.60
2019-03-12T02:01:26.420Z,9.20
2019-03-12T02:02:26.281Z,9.20
2019-03-12T02:03:26.257Z,6.90
2019-03-12T02:04:26.216Z,9.10
2019-03-12T02:05:26.237Z,7.80
2019-03-12T02:06:26.205Z,8.10
2019-03-12T02:07:26.197Z,7.80
2019-03-12T02:08:26.260Z,7.60
2019-03-12T02:09:26.173Z,8.30
2019-03-12T02:10:26.151Z,8.50
2019-03-12T02:11:26.147Z,6.90
2019-03-12T02:12:26.134Z,6.00
2019-03-12T02:13:26.164Z,5.90
2019-03-12T02:14:26.145Z,6.00
2019-03-12T02:15:26.093Z,5.20
2019-03-12T02:16:26.095Z,4.50
2019-03-12T02:17:26.078Z,4.20
2019-03-12T02:18:26.073Z,3.70
2019-03-12T02:19:26.197Z,4.40
2019-03-12T02:20:26.036Z,4.80
2019-03-12T02:21:26.035Z,4.80
2019-03-12T02:22:26.026Z,5.50
2019-03-12T02:23:28.865Z,5.30
2019-03-12T02:24:26.005Z,5.30
2019-03-12T02:25:26.031Z,6.10
2019-03-12T02:26:26.051Z,6.50
2019-03-12T02:27:25.966Z,6.40
2019-03-12T02:28:25.966Z,6.90
2019-03-12T02:29:25.981Z,8.60
2019-03-12T02:30:25.962Z,7.80
2019-03-12T02:31:25.932Z,8.30
2019-03-12T02:32:25.917Z,9.70
2019-03-12T02:33:25.915Z,8.60
2019-03-12T02:34:25.916Z,9.80
2019-03-12T02:35:25.910Z,8.40
2019-03-12T02:36:36.663Z,8.50
2019-03-12T02:37:25.995Z,8.50
2019-03-12T02:38:35.409Z,8.30
2019-03-12T02:39:25.951Z,10.30
2019-03-12T02:40:26.859Z,9.30
2019-03-12T02:41:25.878Z,7.30
2019-03-12T02:42:25.802Z,13.10
2019-03-12T02:43:25.791Z,9.10
2019-03-12T02:44:35.380Z,7.60
2019-03-12T02:45:25.972Z,9.90
2019-03-12T02:46:36.967Z,9.00
2019-03-12T02:47:26.743Z,9.90
2019-03-12T02:48:25.745Z,10.10
2019-03-12T02:49:25.751Z,7.60
2019-03-12T02:50:35.489Z,7.60
2019-03-12T02:51:25.842Z,6.30
2019-03-12T02:52:37.172Z,5.10
2019-03-12T02:53:25.797Z,6.40
2019-03-12T02:54:25.814Z,5.90
2019-03-12T02:55:25.743Z,6.50
2019-03-12T02:56:25.854Z,6.60
2019-03-12T02:57:35.280Z,5.50
2019-03-12T02:58:25.784Z,7.10
2019-03-12T02:59:25.763Z,7.10
2019-03-12T03:00:25.698Z,6.60
2019-03-12T03:01:34.391Z,8.40
2019-03-12T03:02:25.828Z,6.70
2019-03-12T03:03:36.610Z,7.30
2019-03-12T03:04:25.715Z,9.50
2019-03-12T03:05:25.631Z,8.20
2019-03-12T03:06:25.728Z,8.00
2019-03-12T03:07:36.372Z,11.10
2019-03-12T03:08:25.649Z,10.40
2019-03-12T03:09:25.690Z,8.60
2019-03-12T03:10:25.706Z,10.20
2019-03-12T03:11:25.496Z,8.90
2019-03-12T03:12:25.928Z,8.50
2019-03-12T03:13:25.506Z,10.90
2019-03-12T03:14:25.454Z,9.80
2019-03-12T03:15:25.434Z,10.90
2019-03-12T03:16:25.427Z,9.00
2019-03-12T03:17:25.402Z,10.50
2019-03-12T03:18:25.416Z,10.60
2019-03-12T03:19:34.099Z,11.10
2019-03-12T03:20:25.498Z,10.80
2019-03-12T03:21:25.501Z,10.20
2019-03-12T03:22:25.450Z,9.90
2019-03-12T03:23:34.962Z,10.30
2019-03-12T03:24:25.425Z,9.90
2019-03-12T03:25:36.045Z,11.10
2019-03-12T03:26:25.444Z,10.80
2019-03-12T03:27:28.926Z,11.10
2019-03-12T03:28:25.361Z,10.90
2019-03-12T03:29:34.058Z,9.80
2019-03-12T03:30:33.986Z,10.20
2019-03-12T03:31:36.228Z,9.60
2019-03-12T03:32:35.877Z,10.50
2019-03-12T03:33:36.141Z,11.70
2019-03-12T03:34:28.100Z,10.90
2019-03-12T03:35:35.028Z,9.90
2019-03-12T03:36:25.303Z,12.00
2019-03-12T03:37:33.878Z,11.20
2019-03-12T03:38:25.251Z,11.80
2019-03-12T03:39:25.279Z,10.50
2019-03-12T03:40:25.266Z,10.90
2019-03-12T03:41:36.529Z,11.50
2019-03-12T03:42:25.194Z,11.20
2019-03-12T03:43:35.704Z,11.80
2019-03-12T03:44:25.288Z,11.80
2019-03-12T03:45:25.208Z,13.10
2019-03-12T03:46:34.949Z,11.10
2019-03-12T03:47:35.869Z,12.50
2019-03-12T03:48:25.112Z,11.70
2019-03-12T03:50:38.815Z,12.50
2019-03-12T03:51:38.740Z,13.10
2019-03-12T03:52:38.697Z,13.00
2019-03-12T03:53:38.677Z,11.50
2019-03-12T03:54:38.748Z,12.00
2019-03-12T03:55:49.192Z,10.40
2019-03-12T03:56:38.700Z,11.90
2019-03-12T03:57:38.675Z,12.20
2019-03-12T04:01:16.311Z,11.40
2019-03-12T04:02:16.346Z,11.30
2019-03-12T04:03:16.330Z,11.50
2019-03-12T04:04:16.260Z,12.20
2019-03-12T04:05:16.189Z,12.50
2019-03-12T04:06:16.235Z,11.00
2019-03-12T04:07:16.159Z,11.00
2019-03-12T04:08:16.074Z,10.50
2019-03-12T04:09:16.112Z,11.30
2019-03-12T04:10:16.086Z,11.80
2019-03-12T04:11:16.046Z,11.20
2019-03-12T04:12:16.091Z,10.20
2019-03-12T04:13:25.766Z,11.00
2019-03-12T04:14:16.143Z,10.40
2019-03-12T04:15:16.141Z,11.10
2019-03-12T04:16:16.072Z,10.50
2019-03-12T04:17:16.131Z,9.10
2019-03-12T04:18:16.052Z,9.40
2019-03-12T04:19:15.963Z,7.80
2019-03-12T04:20:15.993Z,9.80
2019-03-12T04:21:15.945Z,8.70
2019-03-12T04:22:15.924Z,9.80
2019-03-12T04:23:16.426Z,10.10
2019-03-12T04:24:15.950Z,11.30
2019-03-12T04:25:15.891Z,10.30
2019-03-12T04:26:15.875Z,10.90
2019-03-12T04:27:15.884Z,11.30
2019-03-12T04:28:15.854Z,11.20
2019-03-12T04:29:15.866Z,11.30
2019-03-12T04:30:15.833Z,13.70
2019-03-12T04:31:15.881Z,11.60
2019-03-12T04:32:15.813Z,11.80
2019-03-12T04:33:15.798Z,12.50
2019-03-12T04:34:25.609Z,10.10
2019-03-12T04:35:15.906Z,12.40
2019-03-12T04:36:15.869Z,11.90
2019-03-12T04:37:15.925Z,12.00
2019-03-12T04:38:15.880Z,9.30
2019-03-12T04:39:15.760Z,9.70
2019-03-12T04:40:15.738Z,10.80
2019-03-12T04:41:15.763Z,11.80
2019-03-12T04:42:15.732Z,9.70
2019-03-12T04:43:15.690Z,9.90
2019-03-12T04:44:15.667Z,11.10
2019-03-12T04:45:15.730Z,10.90
2019-03-12T04:46:15.649Z,10.80
2019-03-12T04:47:15.651Z,9.80
2019-03-12T04:48:15.627Z,12.40
2019-03-12T04:49:15.621Z,10.50
2019-03-12T04:50:15.675Z,8.50
2019-03-12T04:51:15.588Z,11.70
2019-03-12T04:52:15.584Z,10.20
2019-03-12T04:53:15.578Z,9.30
2019-03-12T04:54:15.574Z,7.90
2019-03-12T04:55:15.566Z,9.30
2019-03-12T04:56:15.561Z,9.50
2019-03-12T04:57:15.539Z,9.50
2019-03-12T04:58:15.551Z,10.80
2019-03-12T04:59:15.545Z,8.60
2019-03-12T05:00:15.488Z,10.00
2019-03-12T05:01:15.537Z,7.90
2019-03-12T05:02:15.477Z,9.40
2019-03-12T05:03:15.482Z,8.00
2019-03-12T05:04:15.462Z,9.80
2019-03-12T05:05:15.443Z,8.40
2019-03-12T05:06:15.465Z,9.00
2019-03-12T05:07:15.474Z,8.00
2019-03-12T05:08:15.410Z,8.20
2019-03-12T05:09:15.401Z,8.10
2019-03-12T05:10:15.394Z,7.60
2019-03-12T05:11:15.386Z,7.80
2019-03-12T05:12:15.403Z,7.60
2019-03-12T05:13:15.380Z,7.70
2019-03-12T05:14:15.339Z,7.70
2019-03-12T05:15:15.395Z,9.80
2019-03-12T05:16:15.317Z,9.70
2019-03-12T05:17:15.306Z,10.40
2019-03-12T05:18:15.331Z,8.00
2019-03-12T05:19:15.313Z,7.90
2019-03-12T05:20:15.274Z,8.70
2019-03-12T05:21:15.272Z,7.80
2019-03-12T05:22:15.285Z,8.60
2019-03-12T05:23:15.266Z,7.90
2019-03-12T05:24:15.227Z,8.00
2019-03-12T05:25:15.311Z,8.00
2019-03-12T05:26:15.202Z,9.10
2019-03-12T05:27:15.203Z,8.70
2019-03-12T05:28:15.224Z,8.10
2019-03-12T05:29:15.187Z,11.10
2019-03-12T05:30:15.164Z,8.60
2019-03-12T05:31:15.156Z,7.80
2019-03-12T05:32:15.142Z,7.90
2019-03-12T05:33:15.135Z,7.70
2019-03-12T05:34:15.163Z,6.60
2019-03-12T05:35:15.122Z,8.20
2019-03-12T05:36:15.108Z,7.30
2019-03-12T05:37:15.084Z,7.90
2019-03-12T05:38:15.086Z,7.50
2019-03-12T05:39:15.099Z,6.00
2019-03-12T05:40:15.052Z,6.20
2019-03-12T05:41:15.038Z,8.50
2019-03-12T05:42:15.783Z,9.10
2019-03-12T05:43:15.021Z,7.10
2019-03-12T05:44:15.017Z,6.90
2019-03-12T05:45:15.015Z,7.90
2019-03-12T05:46:14.985Z,9.50
2019-03-12T05:47:14.975Z,7.00
2019-03-12T05:48:14.991Z,7.90
2019-03-12T05:49:14.954Z,7.70
2019-03-12T05:50:15.013Z,8.10
2019-03-12T05:51:14.961Z,8.00
2019-03-12T05:52:14.935Z,9.20
2019-03-12T05:53:14.938Z,9.80
2019-03-12T05:54:14.917Z,8.10
2019-03-12T05:55:14.890Z,8.00
2019-03-12T05:56:14.897Z,8.20
2019-03-12T05:57:14.862Z,7.80
2019-03-12T05:58:14.853Z,7.00
2019-03-12T05:59:14.953Z,6.60
2019-03-12T06:00:14.827Z,7.10
2019-03-12T06:01:14.828Z,6.40
2019-03-12T06:02:14.831Z,7.50
2019-03-12T06:03:14.799Z,6.20
2019-03-12T06:04:14.785Z,6.80
2019-03-12T06:05:14.786Z,7.90
2019-03-12T06:06:14.800Z,6.70
2019-03-12T06:07:14.752Z,6.80
2019-03-12T06:08:14.775Z,5.80
2019-03-12T06:09:14.726Z,6.90
2019-03-12T06:10:14.721Z,7.00
2019-03-12T06:11:14.717Z,9.20
2019-03-12T06:12:14.714Z,8.00
2019-03-12T06:13:14.689Z,6.70
2019-03-12T06:14:14.667Z,7.10
2019-03-12T06:15:14.690Z,6.70
2019-03-12T06:16:14.651Z,6.40
2019-03-12T06:17:14.658Z,6.20
2019-03-12T06:18:14.631Z,6.60
2019-03-12T06:19:15.283Z,6.50
2019-03-12T06:20:14.602Z,6.40
2019-03-12T06:21:14.651Z,8.20
2019-03-12T06:22:14.618Z,8.90
2019-03-12T06:23:15.393Z,7.40
2019-03-12T06:24:14.562Z,6.70
2019-03-12T06:25:14.554Z,9.50
2019-03-12T06:26:14.539Z,8.10
2019-03-12T06:27:14.542Z,7.80
2019-03-12T06:28:14.591Z,8.90
2019-03-12T06:29:14.513Z,9.60
2019-03-12T06:30:14.528Z,9.80
2019-03-12T06:31:14.483Z,7.80
2019-03-12T06:32:14.480Z,6.40
2019-03-12T06:33:14.501Z,5.20
2019-03-12T06:34:14.463Z,7.30
2019-03-12T06:35:14.443Z,7.10
2019-03-12T06:36:14.461Z,8.30
2019-03-12T06:37:14.419Z,5.90
2019-03-12T06:38:14.421Z,6.30
2019-03-12T06:39:14.426Z,6.70
2019-03-12T06:40:14.378Z,6.30
2019-03-12T06:41:14.373Z,7.70
2019-03-12T06:42:14.416Z,6.90
2019-03-12T06:43:14.352Z,7.80
2019-03-12T06:44:14.337Z,5.70
2019-03-12T06:45:14.378Z,9.60
2019-03-12T06:46:14.370Z,7.20
2019-03-12T06:47:14.319Z,8.20
2019-03-12T06:48:14.318Z,7.50
2019-03-12T06:49:14.289Z,7.20
2019-03-12T06:50:14.338Z,8.00
2019-03-12T06:51:14.267Z,5.50
2019-03-12T06:52:14.261Z,6.40
2019-03-12T06:53:14.248Z,7.60
2019-03-12T06:54:14.233Z,6.50
2019-03-12T06:55:15.778Z,5.40
2019-03-12T06:56:14.439Z,4.90
2019-03-12T06:57:14.193Z,5.10
2019-03-12T06:58:14.222Z,6.80
2019-03-12T06:59:14.181Z,5.90
2019-03-12T07:00:14.198Z,8.00
2019-03-12T07:01:14.154Z,7.40
2019-03-12T07:02:14.185Z,8.60
2019-03-12T07:03:14.130Z,6.60
2019-03-12T07:04:14.136Z,5.80
2019-03-12T07:05:14.108Z,6.40
2019-03-12T07:06:14.106Z,7.70
2019-03-12T07:07:16.954Z,5.20
2019-03-12T07:08:14.144Z,6.10
2019-03-12T07:09:14.066Z,6.20
2019-03-12T07:10:14.057Z,5.50
2019-03-12T07:11:14.045Z,6.00
2019-03-12T07:12:14.036Z,5.40
2019-03-12T07:13:14.020Z,8.70
2019-03-12T07:14:53.456Z,5.20
2019-03-12T07:15:14.035Z,6.00
2019-03-12T07:16:13.981Z,13.10
2019-03-12T07:17:13.985Z,9.80
2019-03-12T07:18:13.949Z,4.60
2019-03-12T07:19:13.951Z,5.10
2019-03-12T07:20:14.025Z,6.20
2019-03-12T07:21:13.976Z,4.60
2019-03-12T07:22:13.919Z,4.30
2019-03-12T07:23:13.905Z,4.70
2019-03-12T07:24:13.915Z,4.20
2019-03-12T07:25:13.900Z,5.30
2019-03-12T07:26:13.900Z,5.60
2019-03-12T07:27:13.868Z,4.80
2019-03-12T07:28:13.892Z,3.80
2019-03-12T07:29:13.920Z,5.10
2019-03-12T07:30:13.912Z,4.40
2019-03-12T07:31:13.935Z,7.00
2019-03-12T07:32:13.820Z,4.00
2019-03-12T07:33:13.798Z,6.20
2019-03-12T07:34:17.963Z,4.30
2019-03-12T07:35:13.765Z,5.20
2019-03-12T07:36:13.783Z,5.10
2019-03-12T07:37:13.748Z,4.40
2019-03-12T07:38:13.720Z,3.90
2019-03-12T07:39:13.762Z,4.80
2019-03-12T07:40:13.729Z,3.90
2019-03-12T07:41:23.219Z,3.30
2019-03-12T07:42:13.682Z,3.30
2019-03-12T07:43:13.670Z,3.30
2019-03-12T07:44:13.710Z,4.00
2019-03-12T07:45:13.672Z,2.40
2019-03-12T07:46:13.631Z,4.20
2019-03-12T07:47:14.355Z,3.90
2019-03-12T07:48:13.675Z,2.80
2019-03-12T07:49:13.608Z,4.00
2019-03-12T07:50:13.589Z,4.30
2019-03-12T07:51:13.583Z,4.30
2019-03-12T07:52:13.599Z,4.30
2019-03-12T07:53:13.585Z,2.70
2019-03-12T07:54:13.554Z,5.20
2019-03-12T07:55:13.564Z,2.90
2019-03-12T07:56:13.538Z,3.20
2019-03-12T07:57:13.530Z,5.50
2019-03-12T07:58:14.785Z,3.50
2019-03-12T08:00:34.060Z,2.90
2019-03-12T08:01:25.204Z,3.00
2019-03-12T08:02:25.039Z,3.20
2019-03-12T08:03:24.908Z,5.00
2019-03-12T08:04:25.483Z,2.70
2019-03-12T08:05:27.955Z,4.30
2019-03-12T08:06:24.901Z,2.20
2019-03-12T08:07:24.858Z,4.10
2019-03-12T08:08:25.468Z,2.80
2019-03-12T08:09:24.836Z,5.10
2019-03-12T08:10:24.839Z,4.00
2019-03-12T08:11:24.791Z,3.30
2019-03-12T08:12:24.836Z,1.60
2019-03-12T08:13:24.790Z,3.10
2019-03-12T08:14:26.837Z,2.30
2019-03-12T08:15:24.759Z,3.10
2019-03-12T08:16:24.760Z,3.70
2019-03-12T08:17:24.730Z,2.70
2019-03-12T08:18:24.959Z,2.20
2019-03-12T08:19:24.700Z,2.20
2019-03-12T08:20:24.706Z,3.20
2019-03-12T08:21:24.681Z,2.50
2019-03-12T08:22:24.704Z,3.30
2019-03-12T08:23:24.689Z,2.40
2019-03-12T08:24:25.455Z,3.50
2019-03-12T08:25:24.656Z,2.10
2019-03-12T08:26:25.455Z,4.00
2019-03-12T08:27:26.155Z,3.90
2019-03-12T08:28:24.606Z,2.50
2019-03-12T08:29:24.610Z,2.00
2019-03-12T08:30:24.586Z,2.80
2019-03-12T08:31:24.571Z,2.90
2019-03-12T08:32:24.557Z,1.40
2019-03-12T08:33:24.566Z,2.50
2019-03-12T08:34:24.972Z,2.20
2019-03-12T08:35:24.533Z,2.50
2019-03-12T08:36:24.512Z,2.00
2019-03-12T08:37:24.505Z,2.10
2019-03-12T08:38:24.494Z,3.80
2019-03-12T08:39:24.495Z,4.30
2019-03-12T08:40:24.493Z,2.40
2019-03-12T08:41:24.461Z,3.00
2019-03-12T08:42:24.451Z,2.60
2019-03-12T08:43:24.440Z,3.00
2019-03-12T08:44:26.389Z,2.80
2019-03-12T08:45:24.427Z,3.00
2019-03-12T08:46:24.466Z,2.30
2019-03-12T08:47:24.393Z,1.90
2019-03-12T08:48:24.375Z,2.20
2019-03-12T08:49:24.377Z,2.90
2019-03-12T08:50:24.355Z,3.00
2019-03-12T08:51:24.392Z,2.40
2019-03-12T08:52:24.363Z,2.90
2019-03-12T08:53:24.319Z,2.80
2019-03-12T08:54:24.323Z,2.30
2019-03-12T08:55:24.299Z,2.70
2019-03-12T08:56:24.290Z,2.60
2019-03-12T08:57:24.350Z,2.20
2019-03-12T08:58:24.275Z,1.90
2019-03-12T08:59:24.256Z,3.30
2019-03-12T09:00:24.332Z,1.50
2019-03-12T09:01:24.240Z,1.70
2019-03-12T09:02:24.234Z,2.20
2019-03-12T09:03:24.217Z,5.20
2019-03-12T09:04:24.214Z,3.40
2019-03-12T09:05:24.195Z,7.80
2019-03-12T09:06:24.183Z,9.50
2019-03-12T09:07:24.167Z,11.50
2019-03-12T09:08:24.179Z,6.00
2019-03-12T09:09:24.148Z,2.20
2019-03-12T09:10:24.132Z,7.10
2019-03-12T09:11:24.136Z,3.10
2019-03-12T09:12:24.132Z,3.60
2019-03-12T09:13:24.099Z,2.50
2019-03-12T09:14:24.116Z,2.90
2019-03-12T09:15:24.097Z,2.50
2019-03-12T09:16:24.939Z,2.50
2019-03-12T09:17:24.062Z,1.80
2019-03-12T09:18:24.054Z,2.10
2019-03-12T09:19:24.033Z,2.10
2019-03-12T09:20:24.043Z,1.80
2019-03-12T09:21:24.004Z,2.10
2019-03-12T09:22:24.000Z,2.10
2019-03-12T09:23:23.988Z,1.90
2019-03-12T09:24:23.997Z,3.00
2019-03-12T09:25:23.987Z,2.00
2019-03-12T09:26:23.955Z,1.50
2019-03-12T09:27:23.946Z,2.50
2019-03-12T09:28:23.937Z,2.40
2019-03-12T09:29:23.929Z,2.10
2019-03-12T09:30:23.927Z,1.70
2019-03-12T09:31:23.931Z,1.80
2019-03-12T09:32:23.894Z,2.10
2019-03-12T09:33:23.883Z,2.70
2019-03-12T09:34:23.877Z,2.20
2019-03-12T09:35:23.855Z,1.80
2019-03-12T09:36:23.861Z,1.80
2019-03-12T09:37:23.964Z,1.90
2019-03-12T09:38:23.824Z,1.30
2019-03-12T09:39:23.813Z,1.90
2019-03-12T09:40:23.806Z,2.60
2019-03-12T09:41:23.859Z,4.70
2019-03-12T09:42:23.791Z,4.20
2019-03-12T09:43:23.817Z,3.70
2019-03-12T09:44:23.789Z,3.20
2019-03-12T09:45:23.794Z,2.20
2019-03-12T09:46:23.727Z,2.50
2019-03-12T09:47:23.740Z,1.60
2019-03-12T09:48:23.748Z,2.40
2019-03-12T09:49:23.738Z,1.80
2019-03-12T09:50:23.697Z,2.00
2019-03-12T09:51:23.690Z,3.10
2019-03-12T09:52:23.670Z,1.50
2019-03-12T09:53:23.686Z,2.00
2019-03-12T09:54:23.684Z,1.40
2019-03-12T09:55:23.644Z,1.70
2019-03-12T09:56:23.657Z,2.20
2019-03-12T09:57:23.634Z,1.80
2019-03-12T09:58:23.601Z,1.50
2019-03-12T09:59:23.599Z,1.70
2019-03-12T10:00:23.692Z,1.80
2019-03-12T10:01:23.574Z,1.40
2019-03-12T10:02:23.558Z,2.20
2019-03-12T10:03:23.548Z,2.00
2019-03-12T10:04:23.664Z,2.00
2019-03-12T10:05:23.547Z,1.60
2019-03-12T10:06:23.526Z,3.40
2019-03-12T10:07:23.493Z,2.30
2019-03-12T10:08:23.484Z,2.00
2019-03-12T10:09:23.487Z,2.90
2019-03-12T10:10:23.462Z,4.80
2019-03-12T10:11:23.493Z,1.80
2019-03-12T10:12:23.446Z,1.90
2019-03-12T10:13:23.453Z,2.60
2019-03-12T10:14:23.421Z,2.80
2019-03-12T10:15:23.413Z,1.90
2019-03-12T10:16:23.422Z,1.90
2019-03-12T10:17:23.436Z,1.80
2019-03-12T10:18:23.396Z,2.10
2019-03-12T10:19:23.359Z,10.40
2019-03-12T10:20:23.346Z,3.20
2019-03-12T10:21:23.362Z,2.80
2019-03-12T10:22:23.364Z,2.20
2019-03-12T10:23:23.384Z,1.30
2019-03-12T10:24:23.340Z,1.80
2019-03-12T10:25:23.319Z,1.40
2019-03-12T10:26:23.300Z,1.50
2019-03-12T10:27:23.276Z,1.90
2019-03-12T10:28:23.278Z,1.60
2019-03-12T10:29:23.259Z,1.70
2019-03-12T10:30:23.249Z,2.00
2019-03-12T10:31:23.256Z,1.50
2019-03-12T10:32:23.219Z,2.20
2019-03-12T10:33:23.253Z,2.20
2019-03-12T10:34:29.750Z,1.90
2019-03-12T10:35:24.241Z,2.30
2019-03-12T10:36:23.312Z,2.10
2019-03-12T10:37:23.160Z,1.50
2019-03-12T10:38:23.172Z,1.50
2019-03-12T10:39:23.172Z,1.70
2019-03-12T10:40:23.127Z,2.70
2019-03-12T10:41:23.118Z,2.00
2019-03-12T10:42:23.127Z,1.80
2019-03-12T10:43:23.104Z,2.40
2019-03-12T10:44:23.169Z,1.80
2019-03-12T10:45:23.095Z,2.00
2019-03-12T10:46:23.070Z,1.90
2019-03-12T10:47:23.062Z,1.70
2019-03-12T10:48:23.037Z,2.70
2019-03-12T10:49:23.022Z,1.90
2019-03-12T10:50:23.093Z,2.00
2019-03-12T10:51:23.009Z,1.90
2019-03-12T10:52:23.015Z,1.70
2019-03-12T10:53:23.007Z,2.40
2019-03-12T10:54:22.973Z,2.40
2019-03-12T10:55:23.009Z,1.70
2019-03-12T10:56:22.960Z,2.60
2019-03-12T10:57:22.943Z,2.60
2019-03-12T10:58:22.953Z,2.60
2019-03-12T10:59:22.914Z,2.60
2019-03-12T11:00:22.923Z,2.60
2019-03-12T11:01:22.932Z,2.60
2019-03-12T11:02:22.885Z,2.80
2019-03-12T11:03:22.872Z,2.20
2019-03-12T11:04:22.868Z,2.40
2019-03-12T11:05:22.861Z,2.50
2019-03-12T11:06:22.848Z,2.40
2019-03-12T11:07:23.405Z,2.90
2019-03-12T11:08:22.825Z,2.30
2019-03-12T11:09:22.836Z,2.90
2019-03-12T11:10:22.794Z,2.40
2019-03-12T11:11:22.809Z,2.50
2019-03-12T11:12:22.838Z,3.10
2019-03-12T11:13:22.853Z,2.10
2019-03-12T11:14:22.786Z,3.00
2019-03-12T11:15:22.743Z,3.30
2019-03-12T11:16:22.745Z,2.10
2019-03-12T11:17:22.720Z,2.10
2019-03-12T11:18:22.705Z,2.30
2019-03-12T11:19:22.772Z,2.30
2019-03-12T11:20:22.759Z,1.80
2019-03-12T11:21:22.687Z,2.60
2019-03-12T11:22:22.674Z,2.50
2019-03-12T11:23:22.659Z,2.20
2019-03-12T11:24:22.694Z,1.70
2019-03-12T11:25:27.796Z,3.00
2019-03-12T11:26:22.729Z,2.40
2019-03-12T11:27:22.623Z,4.60
2019-03-12T11:28:22.632Z,4.90
2019-03-12T11:29:22.576Z,2.50
2019-03-12T11:30:22.666Z,2.40
2019-03-12T11:31:22.566Z,2.30
2019-03-12T11:32:22.580Z,2.20
2019-03-12T11:33:22.532Z,3.10
2019-03-12T11:34:22.521Z,1.70
2019-03-12T11:35:22.536Z,2.10
2019-03-12T11:36:22.581Z,2.10
2019-03-12T11:37:22.882Z,2.50
2019-03-12T11:38:22.577Z,2.40
2019-03-12T11:39:22.477Z,2.60
2019-03-12T11:40:22.660Z,2.10
2019-03-12T11:41:22.472Z,2.00
2019-03-12T11:42:22.484Z,3.60
2019-03-12T11:43:22.430Z,2.50
2019-03-12T11:44:22.445Z,2.70
2019-03-12T11:45:35.576Z,3.30
2019-03-12T11:46:23.472Z,2.60
2019-03-12T11:47:22.402Z,2.70
2019-03-12T11:48:22.449Z,2.60
2019-03-12T11:49:22.394Z,1.90
2019-03-12T11:50:22.390Z,2.60
2019-03-12T11:51:22.390Z,3.30
2019-03-12T11:52:22.341Z,2.10
2019-03-12T11:53:22.341Z,1.90
2019-03-12T11:54:22.398Z,2.70
2019-03-12T11:55:22.301Z,2.20
2019-03-12T11:56:22.337Z,4.00
2019-03-12T11:57:22.281Z,2.10
2019-03-12T11:58:22.273Z,2.00
2019-03-12T11:59:22.284Z,1.40
2019-03-12T12:00:22.282Z,2.70
2019-03-12T12:01:22.257Z,2.00
2019-03-12T12:02:22.258Z,3.00
2019-03-12T12:03:22.225Z,2.20
2019-03-12T12:04:22.246Z,2.50
2019-03-12T12:05:23.005Z,2.30
2019-03-12T12:06:22.488Z,1.80
2019-03-12T12:07:22.236Z,2.70
2019-03-12T12:08:22.901Z,2.30
2019-03-12T12:09:22.213Z,1.60
2019-03-12T12:10:22.200Z,2.40
2019-03-12T12:11:22.144Z,1.30
2019-03-12T12:12:22.241Z,2.00
2019-03-12T12:13:23.124Z,2.50
2019-03-12T12:15:35.769Z,3.90
2019-03-12T12:16:36.075Z,3.90
2019-03-12T12:17:36.339Z,1.80
2019-03-12T12:18:42.300Z,3.50
2019-03-12T12:19:35.531Z,2.50
2019-03-12T12:20:35.495Z,2.10
2019-03-12T12:21:47.624Z,2.40
